createdAt,value
2017-06-24T00:00:06.333Z,21.27
2017-06-24T00:02:38.730Z,21.89
2017-06-24T00:05:11.436Z,21.03
2017-06-24T00:07:44.404Z,21.55
2017-06-24T00:10:18.474Z,20.83
2017-06-24T00:12:51.251Z,21.03
2017-06-24T00:15:25.565Z,20.90
2017-06-24T00:17:58.621Z,21.40
2017-06-24T00:20:31.274Z,21.38
2017-06-24T00:23:12.894Z,20.22
2017-06-24T00:25:45.835Z,20.45
2017-06-24T00:28:35.426Z,20.90
2017-06-24T00:31:08.690Z,20.86
2017-06-24T00:37:12.138Z,19.95
2017-06-24T00:39:44.447Z,19.86
2017-06-24T00:42:18.113Z,19.24
2017-06-24T00:44:57.504Z,19.85
2017-06-24T00:47:30.902Z,20.26
2017-06-24T00:50:03.416Z,20.77
2017-06-24T00:52:36.464Z,19.90
2017-06-24T00:55:09.576Z,20.78
2017-06-24T00:57:42.860Z,19.45
2017-06-24T01:00:15.240Z,20.08
2017-06-24T01:02:54.654Z,20.00
2017-06-24T01:05:32.790Z,20.46
2017-06-24T01:08:16.763Z,20.07
2017-06-24T01:10:52.289Z,20.67
2017-06-24T01:13:25.973Z,19.90
2017-06-24T01:19:00.987Z,20.15
2017-06-24T01:21:36.354Z,20.13
2017-06-24T01:24:16.094Z,19.79
2017-06-24T01:26:56.002Z,20.09
2017-06-24T01:33:26.359Z,19.68
2017-06-24T01:36:12.700Z,19.57
2017-06-24T01:38:52.000Z,20.16
2017-06-24T01:41:34.680Z,20.14
2017-06-24T01:47:11.901Z,19.89
2017-06-24T01:58:38.878Z,20.28
2017-06-24T02:01:29.627Z,20.00
2017-06-24T02:09:40.136Z,19.37
2017-06-24T02:12:13.762Z,19.76
2017-06-24T02:14:46.992Z,19.56
2017-06-24T02:31:25.034Z,19.40
2017-06-24T02:33:51.381Z,19.29
2017-06-24T02:36:17.776Z,19.77
2017-06-24T02:38:44.140Z,19.53
2017-06-24T02:41:10.468Z,19.83
2017-06-24T02:43:36.786Z,19.64
2017-06-24T02:46:03.158Z,19.22
2017-06-24T02:48:29.516Z,19.19
2017-06-24T02:50:55.904Z,19.39
2017-06-24T02:53:22.243Z,19.54
2017-06-24T02:55:48.691Z,19.22
2017-06-24T02:58:15.013Z,18.83
2017-06-24T03:00:41.337Z,19.08
2017-06-24T03:03:07.654Z,19.07
2017-06-24T03:05:33.972Z,19.44
2017-06-24T03:08:00.339Z,19.19
2017-06-24T03:10:26.666Z,18.53
2017-06-24T03:12:52.996Z,19.39
2017-06-24T03:15:19.343Z,19.02
2017-06-24T03:17:45.684Z,18.75
2017-06-24T03:20:12.014Z,19.28
2017-06-24T03:22:38.319Z,18.99
2017-06-24T03:25:04.729Z,19.22
2017-06-24T03:27:31.026Z,19.15
2017-06-24T03:29:58.245Z,19.04
2017-06-24T03:32:24.567Z,18.66
2017-06-24T03:34:50.862Z,18.88
2017-06-24T03:37:17.220Z,18.67
2017-06-24T03:39:43.888Z,18.98
2017-06-24T03:42:10.258Z,19.02
2017-06-24T03:44:36.630Z,19.22
2017-06-24T03:47:02.972Z,18.66
2017-06-24T03:49:29.265Z,18.70
2017-06-24T03:51:55.655Z,19.25
2017-06-24T03:54:21.989Z,19.02
2017-06-24T03:56:48.308Z,18.95
2017-06-24T03:59:14.672Z,18.78
2017-06-24T04:01:41.096Z,19.24
2017-06-24T04:04:07.418Z,19.19
2017-06-24T04:06:33.717Z,19.18
2017-06-24T04:09:00.063Z,19.14
2017-06-24T04:11:26.419Z,19.07
2017-06-24T04:13:52.750Z,19.09
2017-06-24T04:16:19.065Z,19.32
2017-06-24T04:18:45.395Z,18.83
2017-06-24T04:21:11.715Z,18.26
2017-06-24T04:23:38.061Z,18.37
2017-06-24T04:26:04.398Z,18.83
2017-06-24T04:28:30.710Z,17.95
2017-06-24T04:30:57.057Z,19.02
2017-06-24T04:33:23.447Z,18.87
2017-06-24T04:35:49.897Z,18.32
2017-06-24T04:38:16.254Z,19.15
2017-06-24T04:40:42.618Z,18.86
2017-06-24T04:43:08.983Z,18.72
2017-06-24T04:45:35.310Z,18.47
2017-06-24T04:48:01.611Z,18.85
2017-06-24T04:50:27.973Z,18.50
2017-06-24T04:52:54.351Z,18.86
2017-06-24T04:55:20.678Z,18.65
2017-06-24T04:57:47.013Z,18.65
2017-06-24T05:00:13.360Z,18.72
2017-06-24T05:02:39.689Z,18.98
2017-06-24T05:05:06.048Z,18.83
2017-06-24T05:07:32.424Z,18.94
2017-06-24T05:09:58.724Z,18.91
2017-06-24T05:12:25.167Z,18.54
2017-06-24T05:14:51.509Z,18.26
2017-06-24T05:17:17.841Z,18.75
2017-06-24T05:19:44.166Z,18.88
2017-06-24T05:22:10.487Z,18.90
2017-06-24T05:24:36.834Z,18.41
2017-06-24T05:27:03.160Z,18.22
2017-06-24T05:29:29.484Z,19.03
2017-06-24T05:31:55.825Z,19.12
2017-06-24T05:34:22.181Z,19.02
2017-06-24T05:36:48.588Z,19.06
2017-06-24T05:39:16.848Z,18.93
2017-06-24T05:41:43.168Z,18.97
2017-06-24T05:44:09.540Z,19.09
2017-06-24T05:46:35.881Z,18.89
2017-06-24T05:49:02.210Z,18.73
2017-06-24T05:51:28.538Z,19.11
2017-06-24T05:53:54.871Z,19.22
2017-06-24T05:56:22.911Z,18.51
2017-06-24T05:58:50.743Z,19.49
2017-06-24T06:01:17.226Z,19.38
2017-06-24T06:03:43.577Z,18.90
2017-06-24T06:06:09.905Z,19.10
2017-06-24T06:08:36.319Z,19.12
2017-06-24T06:11:02.622Z,18.98
2017-06-24T06:13:28.953Z,19.12
2017-06-24T06:15:55.302Z,19.22
2017-06-24T06:18:21.627Z,19.34
2017-06-24T06:20:47.965Z,19.56
2017-06-24T06:23:14.305Z,19.55
2017-06-24T06:25:40.655Z,19.53
2017-06-24T06:28:07.024Z,19.51
2017-06-24T06:30:33.354Z,19.51
2017-06-24T06:32:59.690Z,19.54
2017-06-24T06:35:26.018Z,19.66
2017-06-24T06:37:52.371Z,19.36
2017-06-24T06:40:18.701Z,19.57
2017-06-24T06:42:45.036Z,19.53
2017-06-24T06:45:11.375Z,19.36
2017-06-24T06:47:37.698Z,19.50
2017-06-24T06:50:11.813Z,19.24
2017-06-24T06:52:45.178Z,19.46
2017-06-24T06:55:18.811Z,19.52
2017-06-24T07:00:37.631Z,19.57
2017-06-24T07:03:10.436Z,19.77
2017-06-24T07:05:40.893Z,19.73
2017-06-24T07:08:27.434Z,19.85
2017-06-24T07:10:57.614Z,19.61
2017-06-24T07:13:30.746Z,20.06
2017-06-24T07:16:03.487Z,19.87
2017-06-24T10:54:11.537Z,22.30
2017-06-24T10:59:57.221Z,22.37
2017-06-24T11:02:34.117Z,22.08
2017-06-24T11:05:13.456Z,22.48
2017-06-24T11:10:40.264Z,22.48
2017-06-24T11:16:20.641Z,22.40
2017-06-24T11:19:08.187Z,22.13
2017-06-24T11:21:51.227Z,21.95
2017-06-24T11:30:20.512Z,21.93
2017-06-24T11:35:59.890Z,21.84
2017-06-24T11:38:39.998Z,22.20
2017-06-24T11:44:21.003Z,21.66
2017-06-24T11:46:58.584Z,22.01
2017-06-24T11:49:45.193Z,21.56
2017-06-24T11:52:26.142Z,22.03
2017-06-24T11:55:16.054Z,21.79
2017-06-24T11:57:57.464Z,22.71
2017-06-24T12:03:30.029Z,22.36
2017-06-24T12:08:59.265Z,22.17
2017-06-24T12:11:33.073Z,22.41
2017-06-24T12:17:01.528Z,22.48
2017-06-24T12:19:40.276Z,22.49
2017-06-24T12:28:11.346Z,22.72
2017-06-24T12:39:41.996Z,22.71
2017-06-24T12:42:25.957Z,22.60
2017-06-24T12:45:12.911Z,22.93
2017-06-24T12:50:40.562Z,22.93
2017-06-24T12:53:15.606Z,22.26
2017-06-24T12:56:05.839Z,22.95
2017-06-24T12:58:56.027Z,22.93
2017-06-24T13:01:31.090Z,22.73
2017-06-24T13:18:21.080Z,22.55
2017-06-24T13:20:47.420Z,22.85
2017-06-24T13:23:13.807Z,22.15
2017-06-24T13:25:40.188Z,22.74
2017-06-24T13:28:06.532Z,22.63
2017-06-24T13:30:32.891Z,22.68
2017-06-24T13:32:59.252Z,22.67
2017-06-24T13:35:25.740Z,22.73
2017-06-24T13:37:52.091Z,22.72
2017-06-24T13:40:18.500Z,22.63
2017-06-24T13:42:44.859Z,22.94
2017-06-24T13:45:11.246Z,22.89
2017-06-24T13:47:37.599Z,21.87
2017-06-24T13:50:03.958Z,22.50
2017-06-24T13:52:30.323Z,22.82
2017-06-24T13:54:56.752Z,22.61
2017-06-24T13:57:23.107Z,22.85
2017-06-24T13:59:49.492Z,22.64
2017-06-24T14:02:15.858Z,22.68
2017-06-24T14:04:42.210Z,22.55
2017-06-24T14:07:08.553Z,22.58
2017-06-24T14:09:34.910Z,21.97
2017-06-24T14:12:01.283Z,22.43
2017-06-24T14:14:27.636Z,21.81
2017-06-24T14:16:54.033Z,22.33
2017-06-24T14:19:20.364Z,22.33
2017-06-24T14:21:46.821Z,22.28
2017-06-24T14:24:13.189Z,21.83
2017-06-24T14:26:39.540Z,22.11
2017-06-24T14:29:05.902Z,21.66
2017-06-24T14:31:32.281Z,22.35
2017-06-24T14:33:58.736Z,22.14
2017-06-24T14:36:25.128Z,22.24
2017-06-24T14:38:51.543Z,22.15
2017-06-24T14:41:18.472Z,22.24
2017-06-24T14:43:44.939Z,22.04
2017-06-24T14:46:11.736Z,22.26
2017-06-24T14:48:38.109Z,21.85
2017-06-24T14:51:04.795Z,21.89
2017-06-24T14:53:31.140Z,21.98
2017-06-24T14:55:57.529Z,21.78
2017-06-24T14:58:24.668Z,22.06
2017-06-24T15:00:51.045Z,22.08
2017-06-24T15:03:17.399Z,21.74
2017-06-24T15:05:43.854Z,21.82
2017-06-24T15:08:10.531Z,21.94
2017-06-24T15:10:36.890Z,21.89
2017-06-24T15:13:03.283Z,22.06
2017-06-24T15:15:29.693Z,21.93
2017-06-24T15:17:56.057Z,21.98
2017-06-24T15:20:22.427Z,22.07
2017-06-24T15:22:48.820Z,21.98
2017-06-24T15:25:15.164Z,21.12
2017-06-24T15:27:41.537Z,20.96
2017-06-24T15:30:07.897Z,21.88
2017-06-24T15:32:34.307Z,21.99
2017-06-24T15:35:00.682Z,21.82
2017-06-24T15:37:27.116Z,21.73
2017-06-24T15:39:53.496Z,21.89
2017-06-24T15:42:20.042Z,21.89
2017-06-24T15:44:46.417Z,21.56
2017-06-24T15:47:12.781Z,21.42
2017-06-24T15:49:39.195Z,21.31
2017-06-24T15:52:05.668Z,21.93
2017-06-24T15:54:32.056Z,21.50
2017-06-24T15:56:59.044Z,21.50
2017-06-24T15:59:25.738Z,22.08
2017-06-24T16:01:52.101Z,22.11
2017-06-24T16:04:18.462Z,21.96
2017-06-24T16:06:44.874Z,21.96
2017-06-24T16:09:11.235Z,22.06
2017-06-24T16:11:37.610Z,21.98
2017-06-24T16:14:03.973Z,21.42
2017-06-24T16:16:30.332Z,21.79
2017-06-24T16:18:56.701Z,22.16
2017-06-24T16:21:23.053Z,21.24
2017-06-24T16:23:49.602Z,21.61
2017-06-24T16:26:16.507Z,21.54
2017-06-24T16:28:42.894Z,21.30
2017-06-24T16:31:09.297Z,21.87
2017-06-24T16:33:35.740Z,21.63
2017-06-24T16:36:02.088Z,22.03
2017-06-24T16:38:28.444Z,22.03
2017-06-24T16:40:54.859Z,21.99
2017-06-24T16:43:21.252Z,22.08
2017-06-24T16:46:00.272Z,21.91
2017-06-24T16:48:32.855Z,21.79
2017-06-24T16:51:05.250Z,21.93
2017-06-24T16:53:32.125Z,22.05
2017-06-24T16:55:58.501Z,21.46
2017-06-24T16:58:24.890Z,21.97
2017-06-24T17:00:51.273Z,21.96
2017-06-24T17:06:09.788Z,22.03
2017-06-24T17:08:36.845Z,21.84
2017-06-24T17:11:03.153Z,21.57
2017-06-24T17:13:29.866Z,22.01
2017-06-24T17:15:56.265Z,21.99
2017-06-24T17:18:22.648Z,21.99
2017-06-24T17:20:49.845Z,21.42
2017-06-24T17:23:16.245Z,22.03
2017-06-24T17:25:42.565Z,22.02
2017-06-24T17:28:09.111Z,22.06
2017-06-24T17:30:35.443Z,21.69
2017-06-24T17:33:17.163Z,21.87
2017-06-24T17:35:43.476Z,21.62
2017-06-24T17:38:09.867Z,22.03
2017-06-24T17:40:36.193Z,21.72
2017-06-24T17:43:02.528Z,21.88
2017-06-24T17:45:28.844Z,21.81
2017-06-24T17:47:55.264Z,21.72
2017-06-24T17:50:21.621Z,21.52
2017-06-24T17:52:48.139Z,21.91
2017-06-24T17:55:14.437Z,22.00
2017-06-24T17:57:40.880Z,21.86
2017-06-24T18:00:07.239Z,22.03
2017-06-24T18:02:33.574Z,21.43
2017-06-24T18:04:59.914Z,21.81
2017-06-24T18:07:26.252Z,21.60
2017-06-24T18:09:52.598Z,21.45
2017-06-24T18:12:18.998Z,21.51
2017-06-24T18:14:46.087Z,21.82
2017-06-24T18:17:12.394Z,21.61
2017-06-24T18:19:38.751Z,21.47
2017-06-24T18:22:05.068Z,21.69
2017-06-24T18:24:31.380Z,21.56
2017-06-24T18:26:57.718Z,21.23
2017-06-24T18:29:24.065Z,21.34
2017-06-24T18:31:50.412Z,21.54
2017-06-24T18:34:16.796Z,21.30
2017-06-24T18:36:43.114Z,21.14
2017-06-24T18:39:09.442Z,21.18
2017-06-24T18:41:35.788Z,20.51
2017-06-24T18:44:02.152Z,20.16
2017-06-24T18:46:28.461Z,20.20
2017-06-24T18:48:54.792Z,20.91
2017-06-24T18:51:21.132Z,20.83
2017-06-24T18:53:47.510Z,20.73
2017-06-24T18:56:13.841Z,20.19
2017-06-24T18:58:40.157Z,20.54
2017-06-24T19:01:06.516Z,20.05
2017-06-24T19:03:32.855Z,20.18
2017-06-24T19:05:59.194Z,21.02
2017-06-24T19:08:25.530Z,21.16
2017-06-24T19:10:51.884Z,21.24
2017-06-24T19:13:18.250Z,21.20
2017-06-24T19:15:44.596Z,19.98
2017-06-24T19:18:10.950Z,19.90
2017-06-24T19:20:37.302Z,20.12
2017-06-24T19:23:03.637Z,21.03
2017-06-24T19:25:29.981Z,20.29
2017-06-24T19:27:56.338Z,21.03
2017-06-24T19:30:28.958Z,20.40
2017-06-24T19:33:01.700Z,19.80
2017-06-24T19:35:28.045Z,20.04
2017-06-24T19:38:01.148Z,19.82
2017-06-24T19:40:27.491Z,20.26
2017-06-24T19:42:53.815Z,20.21
2017-06-24T19:45:20.188Z,19.42
2017-06-24T19:47:53.402Z,20.09
2017-06-24T19:50:19.765Z,20.66
2017-06-24T19:52:46.124Z,20.88
2017-06-24T19:55:12.477Z,20.89
2017-06-24T19:57:44.366Z,20.97
2017-06-24T20:00:10.716Z,21.00
2017-06-24T20:02:37.047Z,21.03
2017-06-24T20:05:03.374Z,20.94
2017-06-24T20:07:29.713Z,21.00
2017-06-24T20:09:56.059Z,20.96
2017-06-24T20:12:22.392Z,20.99
2017-06-24T20:15:12.234Z,20.50
2017-06-24T20:17:38.580Z,20.79
2017-06-24T20:20:24.588Z,20.64
2017-06-24T20:22:50.985Z,20.43
2017-06-24T20:25:17.346Z,20.33
2017-06-24T20:27:43.664Z,20.39
2017-06-24T20:30:17.848Z,19.84
2017-06-24T20:32:50.915Z,20.40
2017-06-24T20:35:23.736Z,19.78
2017-06-24T20:37:56.530Z,19.94
2017-06-24T20:40:30.506Z,20.39
2017-06-24T20:43:03.460Z,20.61
2017-06-24T20:45:37.920Z,20.67
2017-06-24T20:48:12.017Z,20.79
2017-06-24T20:50:44.822Z,20.93
2017-06-24T20:56:04.486Z,20.83
2017-06-24T20:58:38.436Z,20.85
2017-06-24T21:01:11.346Z,20.78
2017-06-24T21:03:38.229Z,20.38
2017-06-24T21:06:12.033Z,19.79
2017-06-24T21:08:45.451Z,20.09
2017-06-24T21:11:18.738Z,20.06
2017-06-24T21:13:51.782Z,20.36
2017-06-24T21:16:25.414Z,20.45
2017-06-24T21:18:51.790Z,19.76
2017-06-24T21:21:18.115Z,20.39
2017-06-24T21:23:52.122Z,20.04
2017-06-24T21:26:18.438Z,20.27
2017-06-24T21:28:44.824Z,19.98
2017-06-24T21:31:11.135Z,19.78
2017-06-24T21:33:37.861Z,19.91
2017-06-24T21:36:11.524Z,20.20
2017-06-24T21:38:42.959Z,20.56
2017-06-24T21:41:09.305Z,20.55
2017-06-24T21:43:35.651Z,20.36
2017-06-24T21:46:02.317Z,19.86
2017-06-24T21:48:28.677Z,20.25
2017-06-24T21:50:55.037Z,20.59
2017-06-24T21:53:21.473Z,20.59
2017-06-24T21:55:47.810Z,20.36
2017-06-24T21:58:14.172Z,20.52
2017-06-24T22:00:40.530Z,20.42
2017-06-24T22:03:06.879Z,20.22
2017-06-24T22:05:33.268Z,20.24
2017-06-24T22:07:59.621Z,20.38
2017-06-24T22:10:25.985Z,19.93
2017-06-24T22:12:52.715Z,20.22
2017-06-24T22:15:19.043Z,20.42
2017-06-24T22:17:45.474Z,20.32
2017-06-24T22:20:11.821Z,20.01
2017-06-24T22:22:38.188Z,20.41
2017-06-24T22:25:04.527Z,20.00
2017-06-24T22:27:30.921Z,19.95
2017-06-24T22:29:57.357Z,20.01
2017-06-24T22:32:23.734Z,20.24
2017-06-24T22:34:50.118Z,20.37
2017-06-24T22:37:20.466Z,20.24
2017-06-24T22:39:46.810Z,20.45
2017-06-24T22:42:13.185Z,20.46
2017-06-24T22:47:39.321Z,19.15
2017-06-24T22:50:13.002Z,19.12
2017-06-24T22:52:46.026Z,19.51
2017-06-24T22:55:18.806Z,19.16
2017-06-24T22:57:52.355Z,19.96
2017-06-24T23:00:26.091Z,19.74
2017-06-24T23:02:59.293Z,19.26
2017-06-24T23:05:32.570Z,18.84
2017-06-24T23:08:04.899Z,19.53
2017-06-24T23:10:37.673Z,19.08
2017-06-24T23:13:07.682Z,18.92
2017-06-24T23:15:40.011Z,19.47
2017-06-24T23:18:13.725Z,19.89
2017-06-24T23:20:46.657Z,20.23
2017-06-24T23:23:19.212Z,20.09
2017-06-24T23:28:54.646Z,20.02
2017-06-24T23:31:27.773Z,20.16
2017-06-24T23:34:02.350Z,19.75
2017-06-24T23:36:35.717Z,20.10
2017-06-24T23:39:23.258Z,20.22
2017-06-24T23:41:56.464Z,20.13
2017-06-24T23:44:29.861Z,20.19
2017-06-24T23:47:02.852Z,19.74
2017-06-24T23:49:37.076Z,19.12
2017-06-24T23:55:12.235Z,19.73
2017-06-24T23:57:45.193Z,19.49
